Terminal Aerodrome Forecast
Issued by NWS

Home | Current Version | Previous Version | Text Only | Print | Product List | Glossary On
Versions: 1 2 3 4 5 6 7 8 9 10 11 12 13 14
363
FTUS43 KGRR 250543
TAFBTL
TAF
KBTL 250543Z 2506/2606 20007KT P6SM BKN120
     FM251800 18008KT P6SM VCTS SCT050CB BKN100
     FM252200 15007KT P6SM SCT050
     FM260300 16005KT P6SM VCTS BKN050CB=

USA.gov is the U.S. government's official web portal to all federal, state and local government web resources and services.